LGMK Airport Information

Runway Information
Runway 16 Length 6244 ft width 98 ft
Elevation 395 ft Threshold 0 ft Heading 160
Runway 34 Length 6244 ft Width 98 ft
Elevation 388 ft Threshold 0 ft Heading 340
Airport Frequencies
Type A/G Name RDO Frequency 563.7 MHZ
Type APP Name APP Frequency 118.75 MHZ
Type TWR Name TWR Frequency 118.75 MHZ
Airport Navaids
Type VOR-DME Name Mikonos Frequency 110000 KHZ
Type NDB Name Mikonos Frequency 401 KHZ
Airport Weather Information & NOTAM
ADDS - METARS form results

(0409 UTC 18 May 2022)
Data provider http://aviationweather.gov/metar/data/
 
METAR text: LGMK 180350Z VRB01KT CAVOK 20/13 Q1012
Conditions at: LGMK (MIKONOS ISLAND , GR) observed 0350 UTC 18 May 2022
Temperature: 20.0°C (68°F)
Dewpoint: 13.0°C (55°F) [RH = 64%]
Pressure (altimeter): 29.88 inches Hg (1012.0 mb)
Winds: variable direction winds at 1 MPH (1 knots; 0.5 m/s)
Visibility: 6 or more miles (10+ km)
Ceiling: ceiling and visibility are OK
Clouds: unknown
Weather: no significant weather observed at this time

METAR text: LGMK 180320Z VRB01KT CAVOK 20/14 Q1012
Conditions at: LGMK (MIKONOS ISLAND , GR) observed 0320 UTC 18 May 2022
Temperature: 20.0°C (68°F)
Dewpoint: 14.0°C (57°F) [RH = 68%]
Pressure (altimeter): 29.88 inches Hg (1012.0 mb)
Winds: variable direction winds at 1 MPH (1 knots; 0.5 m/s)
Visibility: 6 or more miles (10+ km)
Ceiling: ceiling and visibility are OK
Clouds: unknown
Weather: no significant weather observed at this time

Forecast for: LGMK (MIKONOS ISLAND , GR)
Text: TAF LGMK 180200Z 1803/1812 24008KT 9999 FEW018
Forecast period: 0300 to 1200 UTC 18 May 2022
Forecast type: FROM: standard forecast or significant change
Winds: from the WSW (240 degrees) at 9 MPH (8 knots; 4.1 m/s)
Visibility: 6 or more miles (10+ km)
Ceiling: at least 12,000 feet AGL
Clouds: few clouds at 1800 feet AGL
Weather: no significant weather forecast for this period